sensor_id;sensor_type;location;lat;lon;timestamp;pressure;altitude;pressure_sealevel;temperature;humidity
56402;BME280;42299;35.160;26.100;2023-06-01T06:01:25;101135.69;;;19.95;100.00
56402;BME280;42299;35.160;26.100;2023-06-01T06:02:49;101130.00;;;20.13;100.00
56402;BME280;42299;35.160;26.100;2023-06-01T06:04:11;101130.47;;;20.38;100.00
56402;BME280;42299;35.160;26.100;2023-06-01T06:05:33;101130.75;;;20.68;100.00
56402;BME280;42299;35.160;26.100;2023-06-01T06:06:56;101128.38;;;20.96;100.00
56402;BME280;42299;35.160;26.100;2023-06-01T06:08:18;101126.13;;;21.20;100.00
56402;BME280;42299;35.160;26.100;2023-06-01T06:09:41;101123.09;;;21.35;100.00
56402;BME280;42299;35.160;26.100;2023-06-01T06:11:03;101130.03;;;21.45;100.00
56402;BME280;42299;35.160;26.100;2023-06-01T06:12:26;101126.28;;;21.52;100.00
56402;BME280;42299;35.160;26.100;2023-06-01T06:13:47;101124.41;;;21.54;100.00
56402;BME280;42299;35.160;26.100;2023-06-01T06:15:10;101126.94;;;21.62;100.00
56402;BME280;42299;35.160;26.100;2023-06-01T06:16:35;101117.75;;;21.72;100.00
56402;BME280;42299;35.160;26.100;2023-06-01T06:17:57;101122.88;;;21.81;100.00
56402;BME280;42299;35.160;26.100;2023-06-01T06:19:20;101124.56;;;21.85;100.00
56402;BME280;42299;35.160;26.100;2023-06-01T06:20:42;101120.00;;;21.88;100.00
56402;BME280;42299;35.160;26.100;2023-06-01T06:22:06;101126.19;;;21.92;100.00
56402;BME280;42299;35.160;26.100;2023-06-01T06:23:29;101126.00;;;22.00;100.00
56402;BME280;42299;35.160;26.100;2023-06-01T06:24:53;101119.47;;;22.10;100.00
56402;BME280;42299;35.160;26.100;2023-06-01T06:27:37;101101.91;;;22.31;100.00
56402;BME280;42299;35.160;26.100;2023-06-01T06:28:59;101099.06;;;22.35;100.00
56402;BME280;42299;35.160;26.100;2023-06-01T06:30:21;101099.94;;;22.36;100.00
56402;BME280;42299;35.160;26.100;2023-06-01T06:31:47;101099.00;;;22.38;100.00
56402;BME280;42299;35.160;26.100;2023-06-01T06:33:10;101089.56;;;22.54;100.00
56402;BME280;42299;35.160;26.100;2023-06-01T06:34:32;101087.31;;;22.70;100.00
56402;BME280;42299;35.160;26.100;2023-06-01T06:35:56;101087.75;;;22.86;100.00
56402;BME280;42299;35.160;26.100;2023-06-01T06:37:18;101076.53;;;23.01;100.00
56402;BME280;42299;35.160;26.100;2023-06-01T06:38:41;101068.00;;;23.16;100.00
56402;BME280;42299;35.160;26.100;2023-06-01T06:40:04;101062.16;;;23.30;100.00
56402;BME280;42299;35.160;26.100;2023-06-01T06:41:27;101052.81;;;23.41;100.00
56402;BME280;42299;35.160;26.100;2023-06-01T06:42:50;101036.25;;;23.54;100.00
56402;BME280;42299;35.160;26.100;2023-06-01T06:44:13;101031.38;;;23.65;100.00
56402;BME280;42299;35.160;26.100;2023-06-01T06:45:36;101024.78;;;23.73;100.00
56402;BME280;42299;35.160;26.100;2023-06-01T06:47:01;101011.00;;;23.82;100.00
56402;BME280;42299;35.160;26.100;2023-06-01T06:48:24;101002.75;;;23.87;100.00
56402;BME280;42299;35.160;26.100;2023-06-01T06:49:46;100998.19;;;23.89;100.00
56402;BME280;42299;35.160;26.100;2023-06-01T06:51:09;100993.72;;;23.88;100.00
56402;BME280;42299;35.160;26.100;2023-06-01T06:52:32;100983.25;;;23.79;100.00
56402;BME280;42299;35.160;26.100;2023-06-01T06:53:55;100980.47;;;23.82;100.00
56402;BME280;42299;35.160;26.100;2023-06-01T06:55:18;100975.16;;;23.79;100.00
56402;BME280;42299;35.160;26.100;2023-06-01T06:56:41;100975.16;;;23.79;100.00
56402;BME280;42299;35.160;26.100;2023-06-01T06:58:02;100974.19;;;23.81;100.00
56402;BME280;42299;35.160;26.100;2023-06-01T06:59:25;100974.84;;;23.88;100.00
56402;BME280;42299;35.160;26.100;2023-06-01T07:00:48;100977.13;;;23.99;100.00
56402;BME280;42299;35.160;26.100;2023-06-01T07:02:12;100970.34;;;24.12;100.00
56402;BME280;42299;35.160;26.100;2023-06-01T07:03:34;100963.78;;;24.20;100.00
56402;BME280;42299;35.160;26.100;2023-06-01T07:04:59;100963.84;;;24.19;100.00
56402;BME280;42299;35.160;26.100;2023-06-01T07:06:21;100962.78;;;24.23;100.00
56402;BME280;42299;35.160;26.100;2023-06-01T07:07:44;100954.38;;;24.31;100.00
56402;BME280;42299;35.160;26.100;2023-06-01T07:09:07;100962.31;;;24.35;100.00
56402;BME280;42299;35.160;26.100;2023-06-01T07:10:30;100954.78;;;24.43;100.00
56402;BME280;42299;35.160;26.100;2023-06-01T07:11:52;100956.31;;;24.50;100.00
56402;BME280;42299;35.160;26.100;2023-06-01T07:13:14;100957.78;;;24.59;100.00
56402;BME280;42299;35.160;26.100;2023-06-01T07:14:37;100958.38;;;24.67;100.00
56402;BME280;42299;35.160;26.100;2023-06-01T07:16:00;100958.06;;;24.75;100.00
56402;BME280;42299;35.160;26.100;2023-06-01T07:17:24;100961.19;;;24.87;100.00
56402;BME280;42299;35.160;26.100;2023-06-01T07:18:46;100962.84;;;24.91;100.00
56402;BME280;42299;35.160;26.100;2023-06-01T07:20:10;100965.59;;;24.90;100.00
56402;BME280;42299;35.160;26.100;2023-06-01T07:21:32;100958.16;;;24.95;100.00
56402;BME280;42299;35.160;26.100;2023-06-01T07:22:54;100964.97;;;25.05;100.00
56402;BME280;42299;35.160;26.100;2023-06-01T07:24:17;100962.75;;;25.15;100.00
56402;BME280;42299;35.160;26.100;2023-06-01T07:25:40;100953.34;;;25.25;100.00
56402;BME280;42299;35.160;26.100;2023-06-01T07:27:03;100948.50;;;25.33;100.00
56402;BME280;42299;35.160;26.100;2023-06-01T07:28:26;100952.88;;;25.35;100.00
56402;BME280;42299;35.160;26.100;2023-06-01T07:29:48;100945.59;;;25.37;100.00
56402;BME280;42299;35.160;26.100;2023-06-01T07:31:15;100942.63;;;25.44;100.00
56402;BME280;42299;35.160;26.100;2023-06-01T07:32:39;100943.34;;;25.47;100.00
56402;BME280;42299;35.160;26.100;2023-06-01T07:34:02;100941.53;;;25.48;100.00
56402;BME280;42299;35.160;26.100;2023-06-01T07:35:24;100935.25;;;25.47;100.00
56402;BME280;42299;35.160;26.100;2023-06-01T07:36:48;100938.03;;;25.46;100.00
56402;BME280;42299;35.160;26.100;2023-06-01T07:38:11;100938.72;;;25.51;100.00
56402;BME280;42299;35.160;26.100;2023-06-01T07:39:34;100938.56;;;25.54;100.00
56402;BME280;42299;35.160;26.100;2023-06-01T07:40:57;100946.56;;;25.57;100.00
56402;BME280;42299;35.160;26.100;2023-06-01T07:42:18;100948.03;;;25.65;100.00
56402;BME280;42299;35.160;26.100;2023-06-01T07:43:41;100946.66;;;25.75;100.00
56402;BME280;42299;35.160;26.100;2023-06-01T07:45:04;100951.41;;;25.70;100.00
56402;BME280;42299;35.160;26.100;2023-06-01T07:46:29;100941.25;;;25.54;100.00
56402;BME280;42299;35.160;26.100;2023-06-01T07:47:53;100947.34;;;25.38;100.00
56402;BME280;42299;35.160;26.100;2023-06-01T07:49:15;100932.72;;;25.22;100.00
56402;BME280;42299;35.160;26.100;2023-06-01T07:50:38;100932.09;;;25.16;100.00
56402;BME280;42299;35.160;26.100;2023-06-01T07:52:01;100937.50;;;25.16;100.00
56402;BME280;42299;35.160;26.100;2023-06-01T07:53:24;100940.75;;;25.24;100.00
56402;BME280;42299;35.160;26.100;2023-06-01T07:54:46;100941.31;;;25.32;100.00
56402;BME280;42299;35.160;26.100;2023-06-01T07:56:10;100948.22;;;25.39;100.00
56402;BME280;42299;35.160;26.100;2023-06-01T07:57:33;100941.41;;;25.51;100.00
56402;BME280;42299;35.160;26.100;2023-06-01T07:58:55;100950.13;;;25.59;100.00
56402;BME280;42299;35.160;26.100;2023-06-01T08:00:18;100947.94;;;25.67;100.00
56402;BME280;42299;35.160;26.100;2023-06-01T08:01:41;100946.81;;;25.72;100.00
56402;BME280;42299;35.160;26.100;2023-06-01T08:03:05;100942.78;;;25.81;100.00
56402;BME280;42299;35.160;26.100;2023-06-01T08:04:28;100946.25;;;25.85;100.00
56402;BME280;42299;35.160;26.100;2023-06-01T08:05:53;100953.56;;;25.83;100.00
56402;BME280;42299;35.160;26.100;2023-06-01T08:07:18;100951.84;;;25.80;100.00
56402;BME280;42299;35.160;26.100;2023-06-01T08:08:40;100951.78;;;25.82;100.00
56402;BME280;42299;35.160;26.100;2023-06-01T08:10:04;100959.91;;;25.82;100.00
56402;BME280;42299;35.160;26.100;2023-06-01T08:11:26;100959.03;;;25.81;100.00
56402;BME280;42299;35.160;26.100;2023-06-01T08:12:49;100955.94;;;25.90;100.00
56402;BME280;42299;35.160;26.100;2023-06-01T08:14:16;100955.38;;;26.02;100.00
56402;BME280;42299;35.160;26.100;2023-06-01T08:15:39;100950.28;;;26.15;100.00
56402;BME280;42299;35.160;26.100;2023-06-01T08:17:03;100939.16;;;26.21;100.00
56402;BME280;42299;35.160;26.100;2023-06-01T08:18:29;100930.00;;;26.25;100.00
56402;BME280;42299;35.160;26.100;2023-06-01T08:19:51;100926.19;;;26.29;100.00
56402;BME280;42299;35.160;26.100;2023-06-01T08:21:14;100923.72;;;26.25;100.00
56402;BME280;42299;35.160;26.100;2023-06-01T08:22:38;100931.88;;;26.23;100.00
56402;BME280;42299;35.160;26.100;2023-06-01T08:24:02;100929.13;;;26.25;100.00
56402;BME280;42299;35.160;26.100;2023-06-01T08:25:25;100924.19;;;26.33;100.00
56402;BME280;42299;35.160;26.100;2023-06-01T08:26:46;100934.56;;;26.43;100.00
56402;BME280;42299;35.160;26.100;2023-06-01T08:28:09;100930.50;;;26.52;100.00
56402;BME280;42299;35.160;26.100;2023-06-01T08:29:31;100939.16;;;26.60;100.00
56402;BME280;42299;35.160;26.100;2023-06-01T08:30:53;100936.16;;;26.66;100.00
56402;BME280;42299;35.160;26.100;2023-06-01T08:32:17;100928.84;;;26.68;100.00
56402;BME280;42299;35.160;26.100;2023-06-01T08:33:41;100925.19;;;26.69;100.00
56402;BME280;42299;35.160;26.100;2023-06-01T08:35:05;100917.34;;;26.63;100.00
56402;BME280;42299;35.160;26.100;2023-06-01T08:36:27;100916.22;;;26.67;100.00
56402;BME280;42299;35.160;26.100;2023-06-01T08:37:49;100907.97;;;26.70;100.00
56402;BME280;42299;35.160;26.100;2023-06-01T08:39:20;100905.91;;;26.75;100.00
56402;BME280;42299;35.160;26.100;2023-06-01T08:40:44;100899.38;;;26.79;100.00
56402;BME280;42299;35.160;26.100;2023-06-01T08:42:08;100890.94;;;26.85;100.00
56402;BME280;42299;35.160;26.100;2023-06-01T08:43:32;100898.94;;;26.88;100.00
56402;BME280;42299;35.160;26.100;2023-06-01T08:45:03;100899.84;;;26.89;100.00
56402;BME280;42299;35.160;26.100;2023-06-01T08:46:27;100891.66;;;26.90;100.00
56402;BME280;42299;35.160;26.100;2023-06-01T08:47:53;100895.13;;;26.92;100.00
56402;BME280;42299;35.160;26.100;2023-06-01T08:49:18;100888.63;;;26.96;100.00
56402;BME280;42299;35.160;26.100;2023-06-01T08:50:42;100888.47;;;27.00;100.00
56402;BME280;42299;35.160;26.100;2023-06-01T08:52:07;100883.09;;;26.98;100.00
56402;BME280;42299;35.160;26.100;2023-06-01T08:53:30;100882.81;;;27.04;100.00
56402;BME280;42299;35.160;26.100;2023-06-01T08:54:53;100881.84;;;27.05;100.00
56402;BME280;42299;35.160;26.100;2023-06-01T08:56:16;100873.72;;;27.05;100.00
56402;BME280;42299;35.160;26.100;2023-06-01T08:57:40;100883.53;;;27.08;100.00
56402;BME280;42299;35.160;26.100;2023-06-01T08:59:02;100884.25;;;27.11;100.00
56402;BME280;42299;35.160;26.100;2023-06-01T09:00:25;100885.63;;;27.20;100.00
56402;BME280;42299;35.160;26.100;2023-06-01T09:01:48;100890.97;;;27.21;100.00
56402;BME280;42299;35.160;26.100;2023-06-01T09:03:11;100886.44;;;27.22;100.00
56402;BME280;42299;35.160;26.100;2023-06-01T09:04:35;100890.97;;;27.21;100.00
56402;BME280;42299;35.160;26.100;2023-06-01T09:06:03;100882.03;;;27.19;100.00
56402;BME280;42299;35.160;26.100;2023-06-01T09:07:28;100877.47;;;27.20;100.00
56402;BME280;42299;35.160;26.100;2023-06-01T09:08:52;100882.66;;;27.24;100.00
56402;BME280;42299;35.160;26.100;2023-06-01T09:10:14;100889.78;;;27.27;100.00
56402;BME280;42299;35.160;26.100;2023-06-01T09:11:37;100889.44;;;27.33;100.00
56402;BME280;42299;35.160;26.100;2023-06-01T09:12:59;100887.94;;;27.45;100.00
56402;BME280;42299;35.160;26.100;2023-06-01T09:14:24;100883.25;;;27.48;100.00
56402;BME280;42299;35.160;26.100;2023-06-01T09:15:51;100886.19;;;27.44;100.00
56402;BME280;42299;35.160;26.100;2023-06-01T09:17:20;100886.28;;;27.42;100.00
56402;BME280;42299;35.160;26.100;2023-06-01T09:18:53;100881.81;;;27.41;100.00
56402;BME280;42299;35.160;26.100;2023-06-01T09:20:23;100880.38;;;27.34;100.00
56402;BME280;42299;35.160;26.100;2023-06-01T09:21:56;100877.66;;;27.34;100.00
56402;BME280;42299;35.160;26.100;2023-06-01T09:23:23;100884.09;;;27.31;100.00
56402;BME280;42299;35.160;26.100;2023-06-01T09:24:55;100878.66;;;27.31;100.00
56402;BME280;42299;35.160;26.100;2023-06-01T09:26:25;100879.88;;;27.26;100.00
56402;BME280;42299;35.160;26.100;2023-06-01T09:27:50;100874.44;;;27.26;100.00
56402;BME280;42299;35.160;26.100;2023-06-01T09:29:12;100872.00;;;27.21;96.35
56402;BME280;42299;35.160;26.100;2023-06-01T09:30:41;100869.59;;;27.15;94.99
56402;BME280;42299;35.160;26.100;2023-06-01T09:32:04;100871.34;;;27.16;93.56
56402;BME280;42299;35.160;26.100;2023-06-01T09:33:27;100866.50;;;27.23;91.15
56402;BME280;42299;35.160;26.100;2023-06-01T09:34:49;100867.28;;;27.25;89.97
56402;BME280;42299;35.160;26.100;2023-06-01T09:36:23;100868.25;;;27.24;87.82
56402;BME280;42299;35.160;26.100;2023-06-01T09:37:55;100856.34;;;27.26;91.54
56402;BME280;42299;35.160;26.100;2023-06-01T09:39:20;100853.25;;;27.34;92.54
56402;BME280;42299;35.160;26.100;2023-06-01T09:40:55;100848.31;;;27.42;88.64
56402;BME280;42299;35.160;26.100;2023-06-01T09:42:30;100854.06;;;27.53;88.26
56402;BME280;42299;35.160;26.100;2023-06-01T09:43:53;100846.41;;;27.61;88.03
56402;BME280;42299;35.160;26.100;2023-06-01T09:45:18;100846.75;;;27.71;84.98
56402;BME280;42299;35.160;26.100;2023-06-01T09:46:47;100847.63;;;27.71;79.99
56402;BME280;42299;35.160;26.100;2023-06-01T09:48:16;100843.97;;;27.72;78.53
56402;BME280;42299;35.160;26.100;2023-06-01T09:49:41;100842.84;;;27.76;80.74
56402;BME280;42299;35.160;26.100;2023-06-01T09:51:04;100840.84;;;27.80;81.04
56402;BME280;42299;35.160;26.100;2023-06-01T09:52:29;100838.66;;;27.87;81.14
56402;BME280;42299;35.160;26.100;2023-06-01T09:53:51;100837.38;;;27.94;82.42
56402;BME280;42299;35.160;26.100;2023-06-01T09:55:13;100844.38;;;27.98;80.28
56402;BME280;42299;35.160;26.100;2023-06-01T09:56:42;100841.75;;;27.96;74.56
56402;BME280;42299;35.160;26.100;2023-06-01T09:58:17;100831.06;;;27.93;73.35
56402;BME280;42299;35.160;26.100;2023-06-01T09:59:42;100833.78;;;27.93;75.53
56402;BME280;42299;35.160;26.100;2023-06-01T10:01:05;100830.13;;;27.94;76.26
56402;BME280;42299;35.160;26.100;2023-06-01T10:02:29;100824.69;;;27.94;77.34
56402;BME280;42299;35.160;26.100;2023-06-01T10:03:55;100826.44;;;27.95;77.00
56402;BME280;42299;35.160;26.100;2023-06-01T10:05:17;100829.16;;;27.95;79.23
56402;BME280;42299;35.160;26.100;2023-06-01T10:06:39;100821.00;;;27.95;81.79
56402;BME280;42299;35.160;26.100;2023-06-01T10:08:05;100824.25;;;28.02;87.27
56402;BME280;42299;35.160;26.100;2023-06-01T10:09:28;100824.94;;;28.05;88.75
56402;BME280;42299;35.160;26.100;2023-06-01T10:10:52;100824.88;;;28.07;88.04
56402;BME280;42299;35.160;26.100;2023-06-01T10:12:14;100826.72;;;28.06;89.70
56402;BME280;42299;35.160;26.100;2023-06-01T10:13:37;100813.56;;;27.99;92.05
56402;BME280;42299;35.160;26.100;2023-06-01T10:15:00;100816.63;;;27.93;95.74
56402;BME280;42299;35.160;26.100;2023-06-01T10:16:24;100813.28;;;27.88;96.43
56402;BME280;42299;35.160;26.100;2023-06-01T10:17:46;100807.41;;;27.80;97.37
56402;BME280;42299;35.160;26.100;2023-06-01T10:19:11;100809.31;;;27.77;98.88
56402;BME280;42299;35.160;26.100;2023-06-01T10:20:35;100814.75;;;27.77;100.00
56402;BME280;42299;35.160;26.100;2023-06-01T10:21:58;100815.63;;;27.78;100.00
56402;BME280;42299;35.160;26.100;2023-06-01T10:23:22;100814.84;;;27.76;100.00
56402;BME280;42299;35.160;26.100;2023-06-01T10:24:45;100820.50;;;27.71;100.00
56402;BME280;42299;35.160;26.100;2023-06-01T10:26:12;100822.44;;;27.69;100.00
56402;BME280;42299;35.160;26.100;2023-06-01T10:27:41;100828.84;;;27.68;100.00
56402;BME280;42299;35.160;26.100;2023-06-01T10:29:07;100819.09;;;27.64;100.00
56402;BME280;42299;35.160;26.100;2023-06-01T10:30:31;100820.91;;;27.64;100.00
56402;BME280;42299;35.160;26.100;2023-06-01T10:31:53;100821.72;;;27.66;100.00
56402;BME280;42299;35.160;26.100;2023-06-01T10:33:51;100816.22;;;27.67;100.00
56402;BME280;42299;35.160;26.100;2023-06-01T10:37:25;100829.06;;;27.64;100.00
56402;BME280;42299;35.160;26.100;2023-06-01T10:38:48;100832.66;;;27.64;99.89
56402;BME280;42299;35.160;26.100;2023-06-01T10:40:19;100830.13;;;27.61;100.00
56402;BME280;42299;35.160;26.100;2023-06-01T10:41:42;100834.03;;;27.56;100.00
56402;BME280;42299;35.160;26.100;2023-06-01T10:43:05;100827.75;;;27.55;100.00
56402;BME280;42299;35.160;26.100;2023-06-01T10:44:47;100825.78;;;27.57;100.00
56402;BME280;42299;35.160;26.100;2023-06-01T10:46:39;100823.00;;;27.59;100.00
56402;BME280;42299;35.160;26.100;2023-06-01T10:48:04;100816.72;;;27.58;100.00
56402;BME280;42299;35.160;26.100;2023-06-01T10:51:20;100816.31;;;27.49;100.00
56402;BME280;42299;35.160;26.100;2023-06-01T10:52:43;100820.84;;;27.48;100.00
56402;BME280;42299;35.160;26.100;2023-06-01T10:54:28;100824.84;;;27.58;100.00
56402;BME280;42299;35.160;26.100;2023-06-01T10:57:47;100827.00;;;27.69;100.00
56402;BME280;42299;35.160;26.100;2023-06-01T10:59:12;100822.34;;;27.71;100.00
56402;BME280;42299;35.160;26.100;2023-06-01T11:00:38;100813.63;;;27.82;100.00
56402;BME280;42299;35.160;26.100;2023-06-01T11:02:04;100813.09;;;27.91;100.00
56402;BME280;42299;35.160;26.100;2023-06-01T11:03:45;100811.81;;;27.98;99.71
56402;BME280;42299;35.160;26.100;2023-06-01T11:05:36;100814.00;;;28.07;97.75
56402;BME280;42299;35.160;26.100;2023-06-01T11:09:02;100807.78;;;28.05;93.79
56402;BME280;42299;35.160;26.100;2023-06-01T11:12:25;100813.91;;;27.93;90.71
56402;BME280;42299;35.160;26.100;2023-06-01T11:14:09;100810.66;;;27.86;79.80
56402;BME280;42299;35.160;26.100;2023-06-01T11:15:32;100815.47;;;27.81;82.27
56402;BME280;42299;35.160;26.100;2023-06-01T11:16:54;100816.34;;;27.82;86.54
56402;BME280;42299;35.160;26.100;2023-06-01T11:18:42;100821.59;;;27.85;88.88
56402;BME280;42299;35.160;26.100;2023-06-01T11:20:06;100823.34;;;27.86;90.82
56402;BME280;42299;35.160;26.100;2023-06-01T11:21:37;100823.00;;;27.92;93.11
56402;BME280;42299;35.160;26.100;2023-06-01T11:23:00;100820.03;;;27.96;93.49
56402;BME280;42299;35.160;26.100;2023-06-01T11:24:25;100814.44;;;27.99;91.64
56402;BME280;42299;35.160;26.100;2023-06-01T11:25:48;100813.13;;;28.06;91.81
56402;BME280;42299;35.160;26.100;2023-06-01T11:27:14;100812.75;;;28.14;90.84
56402;BME280;42299;35.160;26.100;2023-06-01T11:28:39;100807.25;;;28.16;88.35
56402;BME280;42299;35.160;26.100;2023-06-01T11:30:00;100811.53;;;28.20;89.43
56402;BME280;42299;35.160;26.100;2023-06-01T11:31:23;100809.69;;;28.20;84.89
56402;BME280;42299;35.160;26.100;2023-06-01T11:32:46;100816.22;;;28.16;78.62
56402;BME280;42299;35.160;26.100;2023-06-01T11:34:12;100797.22;;;28.16;76.99
56402;BME280;42299;35.160;26.100;2023-06-01T11:35:35;100802.56;;;28.18;73.00
56402;BME280;42299;35.160;26.100;2023-06-01T11:36:57;100809.06;;;28.15;72.91
56402;BME280;42299;35.160;26.100;2023-06-01T11:38:20;100812.09;;;28.09;76.45
56402;BME280;42299;35.160;26.100;2023-06-01T11:39:41;100807.19;;;28.00;75.27
56402;BME280;42299;35.160;26.100;2023-06-01T11:41:04;100801.81;;;27.98;80.40
56402;BME280;42299;35.160;26.100;2023-06-01T11:42:34;100803.44;;;28.02;83.54
56402;BME280;42299;35.160;26.100;2023-06-01T11:43:58;100804.47;;;28.00;85.99
56402;BME280;42299;35.160;26.100;2023-06-01T11:45:20;100798.44;;;27.95;88.18
56402;BME280;42299;35.160;26.100;2023-06-01T11:46:53;100797.63;;;27.93;89.99
56402;BME280;42299;35.160;26.100;2023-06-01T11:48:15;100794.81;;;27.94;92.56
56402;BME280;42299;35.160;26.100;2023-06-01T11:49:41;100788.44;;;27.95;96.53
56402;BME280;42299;35.160;26.100;2023-06-01T11:51:05;100791.31;;;27.92;95.22
56402;BME280;42299;35.160;26.100;2023-06-01T11:52:28;100775.28;;;27.88;91.45
56402;BME280;42299;35.160;26.100;2023-06-01T11:53:51;100776.34;;;27.85;89.30
56402;BME280;42299;35.160;26.100;2023-06-01T11:55:13;100760.91;;;27.86;86.53
56402;BME280;42299;35.160;26.100;2023-06-01T11:56:36;100772.66;;;27.86;84.47
56402;BME280;42299;35.160;26.100;2023-06-01T11:58:00;100771.78;;;27.86;82.13
56402;BME280;42299;35.160;26.100;2023-06-01T11:59:24;100770.97;;;27.84;79.44
56402;BME280;42299;35.160;26.100;2023-06-01T12:00:49;100764.66;;;27.83;81.13
56402;BME280;42299;35.160;26.100;2023-06-01T12:02:17;100761.28;;;27.80;81.93
56402;BME280;42299;35.160;26.100;2023-06-01T12:03:45;100763.38;;;27.74;82.99
56402;BME280;42299;35.160;26.100;2023-06-01T12:05:07;100760.81;;;27.71;83.78
56402;BME280;42299;35.160;26.100;2023-06-01T12:06:31;100759.16;;;27.69;84.10
56402;BME280;42299;35.160;26.100;2023-06-01T12:07:53;100757.41;;;27.68;86.23
56402;BME280;42299;35.160;26.100;2023-06-01T12:09:16;100761.06;;;27.67;86.25
56402;BME280;42299;35.160;26.100;2023-06-01T12:10:39;100759.31;;;27.66;87.29
56402;BME280;42299;35.160;26.100;2023-06-01T12:12:04;100766.56;;;27.65;87.63
56402;BME280;42299;35.160;26.100;2023-06-01T12:13:27;100772.88;;;27.66;87.55
56402;BME280;42299;35.160;26.100;2023-06-01T12:14:52;100758.44;;;27.65;87.96
56402;BME280;42299;35.160;26.100;2023-06-01T12:16:14;100755.66;;;27.67;88.58
56402;BME280;42299;35.160;26.100;2023-06-01T12:17:47;100758.50;;;27.64;89.26
56402;BME280;42299;35.160;26.100;2023-06-01T12:19:10;100759.59;;;27.61;89.98
56402;BME280;42299;35.160;26.100;2023-06-01T12:20:33;100747.66;;;27.64;90.45
56402;BME280;42299;35.160;26.100;2023-06-01T12:21:57;100751.09;;;27.67;90.15
56402;BME280;42299;35.160;26.100;2023-06-01T12:23:20;100744.88;;;27.65;89.96
56402;BME280;42299;35.160;26.100;2023-06-01T12:24:44;100737.81;;;27.63;90.50
56402;BME280;42299;35.160;26.100;2023-06-01T12:26:06;100732.44;;;27.61;91.20
56402;BME280;42299;35.160;26.100;2023-06-01T12:27:29;100742.69;;;27.56;91.20
56402;BME280;42299;35.160;26.100;2023-06-01T12:28:53;100742.44;;;27.61;92.33
56402;BME280;42299;35.160;26.100;2023-06-01T12:30:24;100743.13;;;27.64;92.48
56402;BME280;42299;35.160;26.100;2023-06-01T12:31:52;100731.03;;;27.70;91.67
56402;BME280;42299;35.160;26.100;2023-06-01T12:33:31;100733.06;;;27.66;91.95
56402;BME280;42299;35.160;26.100;2023-06-01T12:35:04;100728.59;;;27.65;92.94
56402;BME280;42299;35.160;26.100;2023-06-01T12:36:29;100732.19;;;27.66;93.79
56402;BME280;42299;35.160;26.100;2023-06-01T12:38:03;100736.22;;;27.74;94.06
56402;BME280;42299;35.160;26.100;2023-06-01T12:39:32;100732.97;;;27.84;93.96
56402;BME280;42299;35.160;26.100;2023-06-01T12:41:06;100728.00;;;27.92;93.78
56402;BME280;42299;35.160;26.100;2023-06-01T12:42:36;100726.97;;;27.94;94.20
56402;BME280;42299;35.160;26.100;2023-06-01T12:43:59;100721.09;;;28.02;94.02
56402;BME280;42299;35.160;26.100;2023-06-01T12:45:21;100728.91;;;28.08;92.96
56402;BME280;42299;35.160;26.100;2023-06-01T12:46:45;100728.63;;;28.12;92.85
56402;BME280;42299;35.160;26.100;2023-06-01T12:48:07;100729.25;;;28.18;93.45
56402;BME280;42299;35.160;26.100;2023-06-01T12:49:30;100738.81;;;28.25;92.28
56402;BME280;42299;35.160;26.100;2023-06-01T12:50:53;100743.78;;;28.32;92.92
56402;BME280;42299;35.160;26.100;2023-06-01T12:52:14;100742.63;;;28.36;91.44
56402;BME280;42299;35.160;26.100;2023-06-01T12:53:37;100744.22;;;28.40;91.16
56402;BME280;42299;35.160;26.100;2023-06-01T12:55:00;100743.16;;;28.43;90.69
56402;BME280;42299;35.160;26.100;2023-06-01T12:56:24;100737.91;;;28.40;89.91
56402;BME280;42299;35.160;26.100;2023-06-01T12:57:51;100741.88;;;28.34;90.06
56402;BME280;42299;35.160;26.100;2023-06-01T12:59:14;100729.63;;;28.27;90.02
56402;BME280;42299;35.160;26.100;2023-06-01T13:00:37;100720.34;;;28.16;89.71
56402;BME280;42299;35.160;26.100;2023-06-01T13:02:01;100727.06;;;28.08;90.89
56402;BME280;42299;35.160;26.100;2023-06-01T13:03:25;100722.22;;;27.98;92.10
56402;BME280;42299;35.160;26.100;2023-06-01T13:04:46;100726.97;;;27.94;93.30
56402;BME280;42299;35.160;26.100;2023-06-01T13:06:09;100729.69;;;27.94;94.87
56402;BME280;42299;35.160;26.100;2023-06-01T13:07:32;100726.00;;;27.95;94.40
56402;BME280;42299;35.160;26.100;2023-06-01T13:08:54;100726.88;;;27.96;93.42
56402;BME280;42299;35.160;26.100;2023-06-01T13:10:17;100722.84;;;28.03;94.34
56402;BME280;42299;35.160;26.100;2023-06-01T13:11:40;100725.13;;;28.10;93.85
56402;BME280;42299;35.160;26.100;2023-06-01T13:13:03;100722.31;;;28.12;93.10
56402;BME280;42299;35.160;26.100;2023-06-01T13:14:24;100714.44;;;28.07;91.89
56402;BME280;42299;35.160;26.100;2023-06-01T13:15:47;100714.97;;;27.98;91.88
56402;BME280;42299;35.160;26.100;2023-06-01T13:17:10;100708.84;;;27.95;92.79
56402;BME280;42299;35.160;26.100;2023-06-01T13:18:32;100704.38;;;27.94;92.75
56402;BME280;42299;35.160;26.100;2023-06-01T13:19:55;100698.94;;;27.94;92.24
56402;BME280;42299;35.160;26.100;2023-06-01T13:21:17;100696.31;;;27.92;92.47
56402;BME280;42299;35.160;26.100;2023-06-01T13:22:40;100695.63;;;27.89;92.80
56402;BME280;42299;35.160;26.100;2023-06-01T13:24:03;100698.78;;;27.81;91.57
56402;BME280;42299;35.160;26.100;2023-06-01T13:25:25;100700.34;;;27.69;91.34
56402;BME280;42299;35.160;26.100;2023-06-01T13:26:47;100701.66;;;27.62;91.66